Time;durP1;ratioP1;P1;durP2;ratioP2;P2;SDS_P1;SDS_P2;PMS_P1;PMS_P2;Temp;Humidity;BMP_temperature;BMP_pressure;BME280_temperature;BME280_humidity;BME280_pressure;Samples;Min_cycle;Max_cycle;Signal;HPM_P1;HPM_P2
2021/04/27 00:00:15;;;;;;;6.72;2.55;;;7.30;69.30;;;;;;5053071;28;20050;-81
2021/04/27 00:02:41;;;;;;;5.32;1.90;;;7.20;69.60;;;;;;5052252;28;20017;-81
2021/04/27 00:05:09;;;;;;;9.07;2.25;;;7.30;69.40;;;;;;5053921;28;20099;-82
2021/04/27 00:07:35;;;;;;;4.13;2.08;;;7.20;69.60;;;;;;5070798;28;20480;-81
2021/04/27 00:10:01;;;;;;;4.80;1.88;;;7.20;69.90;;;;;;5051846;28;20031;-81
2021/04/27 00:12:26;;;;;;;4.57;2.10;;;7.10;69.90;;;;;;5067315;28;20492;-82
2021/04/27 00:14:52;;;;;;;5.07;1.95;;;7.10;70.30;;;;;;5050656;28;20483;-82
2021/04/27 00:17:18;;;;;;;5.65;1.67;;;7.10;70.30;;;;;;5070633;28;20043;-82
2021/04/27 00:19:45;;;;;;;4.15;1.90;;;7.10;70.80;;;;;;5060111;28;20123;-83
2021/04/27 00:22:10;;;;;;;5.60;2.20;;;7.00;71.10;;;;;;5086479;28;20024;-81
2021/04/27 00:24:36;;;;;;;5.63;2.22;;;7.00;71.10;;;;;;5089008;28;20042;-82
2021/04/27 00:27:02;;;;;;;5.93;2.22;;;7.00;71.50;;;;;;5089398;28;20024;-82
2021/04/27 00:29:28;;;;;;;5.28;2.00;;;7.00;71.50;;;;;;5090098;28;20107;-83
2021/04/27 00:31:54;;;;;;;3.38;1.75;;;7.00;71.50;;;;;;5089753;28;20054;-82
2021/04/27 00:34:20;;;;;;;5.80;2.05;;;7.00;72.30;;;;;;5092114;28;20028;-82
2021/04/27 00:36:46;;;;;;;5.32;2.33;;;6.90;72.10;;;;;;5088386;28;20024;-82
2021/04/27 00:39:12;;;;;;;3.45;2.20;;;6.90;72.50;;;;;;5086060;28;20433;-82
2021/04/27 00:41:37;;;;;;;5.07;2.92;;;6.90;72.70;;;;;;5084935;28;20020;-81
2021/04/27 00:44:04;;;;;;;5.53;2.33;;;6.80;72.90;;;;;;5089183;28;20028;-83
2021/04/27 00:46:30;;;;;;;4.28;2.00;;;6.80;72.80;;;;;;5089866;28;20436;-82
2021/04/27 00:48:55;;;;;;;4.82;2.00;;;6.80;72.80;;;;;;5089583;28;20060;-83
2021/04/27 00:51:21;;;;;;;4.57;2.15;;;6.80;73.10;;;;;;5088068;28;20388;-82
2021/04/27 00:53:48;;;;;;;4.35;2.50;;;6.70;73.60;;;;;;5089190;28;20140;-81
2021/04/27 00:56:14;;;;;;;4.82;2.05;;;6.70;74.00;;;;;;5086078;28;20016;-82
2021/04/27 00:58:39;;;;;;;4.93;2.20;;;6.60;73.90;;;;;;5086281;28;20369;-83
2021/04/27 01:01:05;;;;;;;4.72;2.70;;;6.70;74.00;;;;;;5087908;28;20017;-82
2021/04/27 01:03:31;;;;;;;3.38;1.67;;;6.60;74.20;;;;;;5090840;28;20043;-82
2021/04/27 01:05:56;;;;;;;5.30;2.80;;;6.60;74.20;;;;;;5090588;28;20510;-81
2021/04/27 01:08:28;;;;;;;8.30;2.63;;;6.60;74.80;;;;;;5090433;28;20012;-82
2021/04/27 01:11:21;;;;;;;6.05;2.53;;;6.60;75.50;;;;;;5090316;28;20111;-82
2021/04/27 01:14:08;;;;;;;4.10;2.63;;;6.60;75.60;;;;;;5084180;28;20020;-82
2021/04/27 01:16:43;;;;;;;5.10;2.58;;;6.50;75.60;;;;;;5088653;28;20020;-82
2021/04/27 01:19:14;;;;;;;6.25;2.55;;;6.40;76.00;;;;;;5089993;28;20023;-82
2021/04/27 01:21:40;;;;;;;7.05;2.97;;;6.40;77.00;;;;;;5065426;28;20090;-82
2021/04/27 01:24:16;;;;;;;8.57;3.03;;;6.40;77.20;;;;;;5072130;28;20491;-82
2021/04/27 01:26:48;;;;;;;4.88;2.30;;;6.40;77.60;;;;;;5055621;28;20052;-83
2021/04/27 01:29:17;;;;;;;5.68;2.65;;;6.40;77.60;;;;;;5074010;28;20021;-83
2021/04/27 01:31:43;;;;;;;7.80;3.05;;;6.30;77.60;;;;;;5056956;28;20032;-83
2021/04/27 01:34:12;;;;;;;5.43;2.55;;;6.30;77.90;;;;;;5056621;28;20028;-82
2021/04/27 01:36:38;;;;;;;5.15;2.90;;;6.30;78.20;;;;;;5057515;28;20089;-82
2021/04/27 01:39:06;;;;;;;8.00;3.17;;;6.30;78.30;;;;;;5052698;28;20469;-81
2021/04/27 01:41:33;;;;;;;7.22;4.07;;;6.30;79.30;;;;;;5055720;28;20158;-83
2021/04/27 01:43:59;;;;;;;5.93;3.00;;;6.20;81.80;;;;;;5070236;28;20017;-82
2021/04/27 01:46:25;;;;;;;6.45;3.45;;;6.20;81.20;;;;;;5056152;28;20023;-81
2021/04/27 01:48:52;;;;;;;7.07;3.58;;;6.10;82.80;;;;;;5073553;28;20043;-83
2021/04/27 01:51:18;;;;;;;7.03;3.22;;;6.10;83.60;;;;;;5056847;28;20576;-82
2021/04/27 01:53:45;;;;;;;8.88;3.20;;;6.00;83.70;;;;;;5056932;28;20116;-83
2021/04/27 01:56:10;;;;;;;11.57;4.03;;;6.00;84.00;;;;;;5051798;28;20045;-83
2021/04/27 01:58:36;;;;;;;8.00;3.83;;;6.00;84.80;;;;;;5041401;28;20174;-83
2021/04/27 02:01:03;;;;;;;5.65;3.00;;;5.90;84.90;;;;;;5053877;28;20032;-83
2021/04/27 02:03:29;;;;;;;6.93;3.47;;;5.90;85.20;;;;;;5053361;28;20020;-84
2021/04/27 02:05:55;;;;;;;7.13;3.47;;;5.80;85.30;;;;;;5054242;28;20058;-83
2021/04/27 02:08:20;;;;;;;5.75;3.53;;;5.80;86.10;;;;;;5053642;28;20452;-81
2021/04/27 02:10:46;;;;;;;6.97;4.40;;;5.70;87.10;;;;;;5051242;28;20078;-82
2021/04/27 02:13:15;;;;;;;11.05;4.78;;;5.70;88.10;;;;;;5064539;28;20021;-82
2021/04/27 02:15:41;;;;;;;8.02;4.22;;;5.70;88.50;;;;;;5054195;28;20021;-82
2021/04/27 02:18:27;;;;;;;9.20;4.93;;;5.70;88.50;;;;;;5068669;28;20392;-83
2021/04/27 02:20:57;;;;;;;7.60;4.38;;;5.70;88.50;;;;;;5080459;28;20032;-82
2021/04/27 02:23:24;;;;;;;6.03;3.50;;;5.60;89.20;;;;;;5084879;28;20023;-83
2021/04/27 02:25:52;;;;;;;7.72;3.63;;;5.60;89.10;;;;;;5089630;28;20024;-83
2021/04/27 02:28:19;;;;;;;5.30;3.30;;;5.60;88.50;;;;;;5093300;28;20012;-83
2021/04/27 02:30:44;;;;;;;6.18;3.30;;;5.60;88.10;;;;;;5087486;28;20028;-82
2021/04/27 02:33:10;;;;;;;8.30;3.80;;;5.60;87.60;;;;;;5093921;28;20028;-83
2021/04/27 02:35:36;;;;;;;6.80;3.78;;;5.60;87.50;;;;;;5092372;28;20022;-83
2021/04/27 02:38:01;;;;;;;7.18;4.00;;;5.60;87.70;;;;;;5090638;28;20463;-82
2021/04/27 02:40:28;;;;;;;8.15;4.30;;;5.60;88.50;;;;;;5084115;28;20012;-83
2021/04/27 02:42:57;;;;;;;6.07;4.00;;;5.50;88.60;;;;;;5091387;28;20483;-82
2021/04/27 02:45:32;;;;;;;4.20;3.10;;;5.50;88.70;;;;;;5087448;28;20479;-81
2021/04/27 02:48:10;;;;;;;4.35;3.30;;;5.50;88.20;;;;;;5087185;28;20028;-83
2021/04/27 02:50:38;;;;;;;4.75;3.10;;;5.40;87.70;;;;;;5085684;28;20103;-82
2021/04/27 02:53:04;;;;;;;5.13;3.85;;;5.30;87.60;;;;;;5091130;28;20024;-82
2021/04/27 02:55:29;;;;;;;6.63;3.42;;;5.30;88.00;;;;;;5090009;28;20028;-83
2021/04/27 02:57:55;;;;;;;6.43;3.63;;;5.20;87.60;;;;;;5087034;28;20018;-82
2021/04/27 03:00:21;;;;;;;7.07;3.78;;;5.20;87.60;;;;;;5086647;28;20055;-82
2021/04/27 03:02:46;;;;;;;5.32;3.28;;;5.10;87.70;;;;;;5091091;28;20025;-80
2021/04/27 03:05:12;;;;;;;6.55;3.63;;;5.10;87.60;;;;;;5086202;28;20081;-80
2021/04/27 03:07:38;;;;;;;7.40;4.25;;;5.10;87.40;;;;;;5087225;28;20026;-83
2021/04/27 03:10:04;;;;;;;5.50;3.30;;;5.10;87.50;;;;;;5092336;28;20020;-81
2021/04/27 03:12:30;;;;;;;8.27;3.95;;;5.00;87.60;;;;;;5089732;28;20047;-82
2021/04/27 03:14:55;;;;;;;6.28;4.22;;;5.00;87.80;;;;;;5087910;28;20484;-81
2021/04/27 03:17:21;;;;;;;3.70;2.83;;;4.90;87.90;;;;;;5090007;28;20023;-83
2021/04/27 03:19:46;;;;;;;4.82;3.25;;;4.90;87.80;;;;;;5086975;28;20056;-83
2021/04/27 03:22:12;;;;;;;6.80;3.90;;;4.90;87.80;;;;;;5062661;28;20073;-83
2021/04/27 03:24:37;;;;;;;5.18;3.72;;;4.90;88.10;;;;;;5047727;28;20480;-82
2021/04/27 03:27:03;;;;;;;7.70;4.10;;;5.00;88.10;;;;;;5066865;28;20380;-83
2021/04/27 03:29:29;;;;;;;6.65;3.80;;;4.90;88.20;;;;;;5071867;28;20480;-83
2021/04/27 03:31:54;;;;;;;6.78;4.47;;;4.90;88.10;;;;;;5071031;28;20124;-83
2021/04/27 03:34:20;;;;;;;7.65;3.72;;;4.90;88.10;;;;;;5072482;28;20064;-82
2021/04/27 03:36:45;;;;;;;6.68;4.15;;;4.80;88.50;;;;;;5072807;28;20028;-82
2021/04/27 03:39:11;;;;;;;7.90;4.20;;;4.80;88.70;;;;;;5049965;28;20385;-82
2021/04/27 03:41:36;;;;;;;6.90;4.10;;;4.70;89.00;;;;;;5052662;28;20082;-81
2021/04/27 03:44:03;;;;;;;7.55;3.72;;;4.70;89.20;;;;;;5066530;28;20472;-82
2021/04/27 03:46:28;;;;;;;7.95;3.85;;;4.70;89.40;;;;;;5047991;28;20057;-82
2021/04/27 03:48:54;;;;;;;8.40;3.92;;;4.70;89.20;;;;;;5052713;28;20101;-84
2021/04/27 03:51:19;;;;;;;6.28;4.05;;;4.70;89.20;;;;;;5052118;28;20476;-83
2021/04/27 03:53:45;;;;;;;6.13;3.95;;;4.70;89.10;;;;;;5072519;28;20028;-82
2021/04/27 03:56:11;;;;;;;6.95;4.45;;;4.70;89.30;;;;;;5046835;28;20025;-82
2021/04/27 03:58:37;;;;;;;6.22;3.75;;;4.60;89.30;;;;;;5052468;28;20074;-82
2021/04/27 04:01:02;;;;;;;7.18;3.78;;;4.60;89.20;;;;;;5049736;28;20017;-82
2021/04/27 04:03:28;;;;;;;6.47;4.38;;;4.60;89.10;;;;;;5052222;28;20107;-82
2021/04/27 04:05:54;;;;;;;8.57;4.13;;;4.60;89.10;;;;;;5052538;28;20023;-81
2021/04/27 04:08:19;;;;;;;7.25;3.80;;;4.50;89.80;;;;;;5054250;28;20055;-82
2021/04/27 04:10:45;;;;;;;7.82;3.90;;;4.40;89.30;;;;;;5054533;28;20119;-83
2021/04/27 04:13:10;;;;;;;8.57;3.97;;;4.40;89.40;;;;;;5042778;28;20028;-81
2021/04/27 04:15:36;;;;;;;6.53;4.10;;;4.40;89.40;;;;;;5069646;28;20024;-81
2021/04/27 04:18:01;;;;;;;6.43;3.78;;;4.30;89.50;;;;;;5053903;28;20468;-83
2021/04/27 04:20:27;;;;;;;7.43;3.70;;;4.40;89.60;;;;;;5074252;28;20509;-83
2021/04/27 04:22:53;;;;;;;8.18;4.35;;;4.30;89.60;;;;;;5089942;28;20077;-82
2021/04/27 04:25:19;;;;;;;8.45;4.40;;;4.30;89.60;;;;;;5084224;28;20028;-83
2021/04/27 04:27:46;;;;;;;6.97;4.10;;;4.30;89.50;;;;;;5083955;28;20101;-82
2021/04/27 04:30:15;;;;;;;7.13;3.97;;;4.30;89.50;;;;;;5088479;28;20024;-83
2021/04/27 04:32:41;;;;;;;7.47;4.47;;;4.30;89.50;;;;;;5082860;28;20558;-82
2021/04/27 04:35:09;;;;;;;6.47;3.63;;;4.30;89.80;;;;;;5090477;28;20115;-82
2021/04/27 04:37:35;;;;;;;5.13;3.70;;;4.30;89.90;;;;;;5090494;28;20020;-82
2021/04/27 04:40:00;;;;;;;5.28;3.65;;;4.30;89.90;;;;;;5088627;28;20016;-83
2021/04/27 04:42:26;;;;;;;5.45;3.83;;;4.30;89.90;;;;;;5086070;28;20477;-82
2021/04/27 04:44:51;;;;;;;5.88;3.83;;;4.30;90.00;;;;;;5089028;28;20024;-82
2021/04/27 04:47:17;;;;;;;4.95;3.78;;;4.30;90.00;;;;;;5088202;28;20024;-82
2021/04/27 04:49:43;;;;;;;7.93;4.10;;;4.30;90.00;;;;;;5087360;28;20036;-82
2021/04/27 04:52:08;;;;;;;7.55;4.80;;;4.30;90.10;;;;;;5091728;28;20483;-82
2021/04/27 04:54:34;;;;;;;8.02;4.38;;;4.30;90.30;;;;;;5092642;28;20016;-82
2021/04/27 04:57:00;;;;;;;11.30;4.88;;;4.30;90.30;;;;;;5089896;28;20016;-82
2021/04/27 04:59:26;;;;;;;7.65;5.72;;;4.30;90.40;;;;;;5090355;28;20146;-82
2021/04/27 05:01:51;;;;;;;11.60;6.43;;;4.40;91.20;;;;;;5094552;28;20553;-81
2021/04/27 05:04:17;;;;;;;6.25;4.95;;;4.40;92.00;;;;;;5093446;28;20028;-81
2021/04/27 05:06:43;;;;;;;7.97;4.95;;;4.40;92.30;;;;;;5094001;28;20051;-82
2021/04/27 05:09:12;;;;;;;9.52;5.85;;;4.40;92.20;;;;;;5095693;28;20012;-82
2021/04/27 05:11:38;;;;;;;11.50;5.75;;;4.40;92.50;;;;;;5091821;28;20030;-81
2021/04/27 05:14:04;;;;;;;12.30;6.50;;;4.40;92.90;;;;;;5090688;28;20069;-83
2021/04/27 05:16:30;;;;;;;9.68;5.68;;;4.50;93.60;;;;;;5091477;28;20020;-80
2021/04/27 05:18:58;;;;;;;11.20;6.80;;;4.50;93.60;;;;;;5094020;28;20196;-82
2021/04/27 05:21:23;;;;;;;8.70;6.35;;;4.50;93.80;;;;;;5094584;28;20051;-82
2021/04/27 05:23:49;;;;;;;9.88;7.10;;;4.50;94.00;;;;;;5088957;28;20024;-81
2021/04/27 05:26:14;;;;;;;10.93;6.65;;;4.50;94.10;;;;;;5093595;28;20027;-82
2021/04/27 05:28:40;;;;;;;10.73;6.45;;;4.50;94.00;;;;;;5090025;28;20483;-82
2021/04/27 05:31:06;;;;;;;11.85;6.85;;;4.60;93.80;;;;;;5092639;28;20490;-82
2021/04/27 05:33:32;;;;;;;9.35;6.63;;;4.50;93.70;;;;;;5089935;28;20031;-82
2021/04/27 05:35:58;;;;;;;11.30;6.65;;;4.60;94.00;;;;;;5095776;28;20016;-81
2021/04/27 05:38:23;;;;;;;14.18;7.47;;;4.60;94.30;;;;;;5095060;28;20063;-81
2021/04/27 05:40:49;;;;;;;11.73;6.60;;;4.70;94.00;;;;;;5094074;28;20475;-80
2021/04/27 05:43:15;;;;;;;12.05;7.10;;;4.80;94.00;;;;;;5074752;28;20023;-82
2021/04/27 05:45:41;;;;;;;10.02;6.65;;;4.90;93.90;;;;;;5075414;28;20024;-82
2021/04/27 05:48:07;;;;;;;8.13;6.35;;;5.00;93.90;;;;;;5075894;28;20024;-82
2021/04/27 05:50:32;;;;;;;13.50;5.93;;;5.00;93.70;;;;;;5074780;28;20021;-81
2021/04/27 05:52:58;;;;;;;12.27;6.78;;;5.00;93.50;;;;;;5074603;28;20036;-81
2021/04/27 05:55:24;;;;;;;8.23;6.30;;;5.10;93.70;;;;;;5074518;28;20073;-82
2021/04/27 05:57:51;;;;;;;9.63;6.75;;;5.20;93.50;;;;;;5074278;28;20043;-80
2021/04/27 06:00:17;;;;;;;9.00;5.68;;;5.30;93.30;;;;;;5074235;28;20021;-81
2021/04/27 06:02:43;;;;;;;11.15;6.35;;;5.30;93.20;;;;;;5074529;28;20020;-83
2021/04/27 06:05:09;;;;;;;10.25;6.28;;;5.50;92.90;;;;;;5073098;28;20805;-82
2021/04/27 06:07:36;;;;;;;9.25;6.32;;;5.60;92.70;;;;;;5074033;28;20042;-82
2021/04/27 06:10:01;;;;;;;9.80;6.47;;;5.70;92.50;;;;;;5074392;28;20568;-81
2021/04/27 06:12:27;;;;;;;10.20;6.57;;;5.80;92.10;;;;;;5074206;28;20056;-82
2021/04/27 06:14:53;;;;;;;8.93;6.25;;;5.80;91.70;;;;;;5075279;28;20464;-81
2021/04/27 06:17:18;;;;;;;10.02;6.55;;;5.90;91.40;;;;;;5054632;28;20416;-82
2021/04/27 06:19:44;;;;;;;8.90;6.53;;;5.90;91.00;;;;;;5051380;28;20080;-82
2021/04/27 06:22:10;;;;;;;8.35;6.32;;;5.90;90.90;;;;;;5035472;28;20021;-82
2021/04/27 06:24:35;;;;;;;9.77;6.45;;;6.00;91.00;;;;;;5017659;28;20029;-81
2021/04/27 06:27:01;;;;;;;7.55;5.65;;;6.20;91.50;;;;;;5022731;28;20028;-82
2021/04/27 06:29:26;;;;;;;10.40;6.30;;;6.30;90.80;;;;;;5033661;28;20030;-82
2021/04/27 06:31:52;;;;;;;8.48;5.93;;;6.50;90.30;;;;;;5033830;28;20481;-82
2021/04/27 06:34:17;;;;;;;10.50;6.65;;;6.60;90.10;;;;;;5034006;28;20484;-82
2021/04/27 06:36:43;;;;;;;9.80;6.78;;;6.70;90.00;;;;;;5035202;28;20029;-82
2021/04/27 06:39:09;;;;;;;7.32;5.32;;;6.80;89.30;;;;;;5033837;28;20018;-82
2021/04/27 06:41:35;;;;;;;10.50;6.53;;;6.90;89.00;;;;;;5035195;28;20017;-82
2021/04/27 06:44:02;;;;;;;8.80;6.70;;;7.00;88.80;;;;;;5034677;28;20032;-82
2021/04/27 06:46:28;;;;;;;7.47;4.38;;;7.10;89.30;;;;;;5033480;28;20811;-82
2021/04/27 06:48:54;;;;;;;8.00;5.03;;;7.20;88.60;;;;;;5054712;28;20083;-82
2021/04/27 06:51:21;;;;;;;7.95;6.28;;;7.40;88.30;;;;;;5034949;28;20485;-82
2021/04/27 06:53:48;;;;;;;6.22;5.10;;;7.60;87.30;;;;;;5033411;28;20096;-81
2021/04/27 06:56:14;;;;;;;8.82;6.03;;;7.80;87.10;;;;;;5034915;28;20411;-83
2021/04/27 06:58:40;;;;;;;8.57;4.88;;;7.90;85.60;;;;;;5034072;28;20361;-81
2021/04/27 07:01:06;;;;;;;8.27;5.65;;;8.10;84.40;;;;;;5035685;28;20024;-83
2021/04/27 07:03:35;;;;;;;6.93;5.03;;;8.20;83.80;;;;;;5036574;28;20048;-82
2021/04/27 07:06:01;;;;;;;8.53;5.10;;;8.40;83.20;;;;;;5033857;28;20100;-82
2021/04/27 07:08:26;;;;;;;6.85;3.88;;;8.50;82.20;;;;;;5035512;28;20021;-83
2021/04/27 07:10:53;;;;;;;8.95;3.85;;;8.60;77.10;;;;;;5036399;28;20035;-83
2021/04/27 07:13:19;;;;;;;8.40;3.70;;;8.60;75.10;;;;;;5036318;28;20120;-82
2021/04/27 07:15:45;;;;;;;8.52;4.53;;;8.60;72.60;;;;;;5030096;28;20025;-83
2021/04/27 07:18:11;;;;;;;9.43;3.30;;;8.70;69.20;;;;;;5015975;28;20030;-83
2021/04/27 07:20:37;;;;;;;6.55;3.47;;;8.70;68.10;;;;;;5035129;28;20091;-82
2021/04/27 07:23:03;;;;;;;5.07;2.95;;;8.70;67.70;;;;;;5055981;28;20048;-82
2021/04/27 07:25:28;;;;;;;4.80;3.20;;;8.70;67.30;;;;;;5073712;28;20037;-81
2021/04/27 07:27:54;;;;;;;12.32;3.92;;;8.70;66.30;;;;;;5073770;28;20024;-81
2021/04/27 07:30:21;;;;;;;10.82;3.25;;;8.70;65.90;;;;;;5072686;28;20536;-81
2021/04/27 07:32:47;;;;;;;5.22;2.85;;;8.70;64.00;;;;;;5073727;28;20100;-82
2021/04/27 07:35:14;;;;;;;6.93;2.97;;;8.80;63.60;;;;;;5072380;28;20507;-81
2021/04/27 07:37:39;;;;;;;5.20;3.33;;;8.90;65.20;;;;;;5072358;28;20028;-82
2021/04/27 07:40:07;;;;;;;7.97;3.25;;;9.00;64.40;;;;;;5072422;28;20028;-81
2021/04/27 07:42:33;;;;;;;6.22;3.35;;;9.00;64.70;;;;;;5073659;28;20052;-81
2021/04/27 07:44:59;;;;;;;12.82;3.50;;;9.10;62.60;;;;;;5057676;28;20093;-81
2021/04/27 07:47:25;;;;;;;4.07;2.78;;;9.20;62.50;;;;;;5039735;28;20029;-81
2021/04/27 07:49:50;;;;;;;7.93;3.45;;;9.20;63.10;;;;;;5052359;28;20051;-82
2021/04/27 07:52:16;;;;;;;4.97;3.42;;;9.30;63.90;;;;;;5052315;28;20507;-82
2021/04/27 07:54:41;;;;;;;5.22;3.67;;;9.40;61.70;;;;;;5052014;28;20025;-81
2021/04/27 07:57:07;;;;;;;6.10;3.38;;;9.50;61.00;;;;;;5053351;28;20020;-82
2021/04/27 07:59:33;;;;;;;4.57;3.38;;;9.60;62.00;;;;;;5046925;28;20033;-80
2021/04/27 08:01:59;;;;;;;6.07;3.30;;;9.70;61.90;;;;;;5037745;28;20037;-81
2021/04/27 08:04:24;;;;;;;4.10;2.58;;;9.80;61.70;;;;;;5036459;28;20100;-82
2021/04/27 08:06:50;;;;;;;6.10;2.75;;;9.90;62.20;;;;;;5051869;28;20064;-82
2021/04/27 08:09:15;;;;;;;5.88;3.38;;;10.00;61.20;;;;;;5051792;28;20499;-80
2021/04/27 08:11:41;;;;;;;8.27;3.05;;;10.20;59.40;;;;;;5051970;28;20029;-81
2021/04/27 08:14:08;;;;;;;5.38;3.00;;;10.30;59.60;;;;;;5051790;28;20020;-82
2021/04/27 08:16:34;;;;;;;4.22;2.78;;;10.40;60.20;;;;;;5064802;28;20392;-82
2021/04/27 08:19:00;;;;;;;5.30;2.58;;;10.50;58.10;;;;;;5071728;28;20099;-83
2021/04/27 08:21:27;;;;;;;5.28;3.10;;;10.50;60.00;;;;;;5054887;28;20116;-80
2021/04/27 08:23:52;;;;;;;4.63;3.22;;;10.70;59.40;;;;;;5052539;28;20043;-81
2021/04/27 08:26:18;;;;;;;4.15;2.83;;;10.80;57.40;;;;;;5034328;28;20021;-81
2021/04/27 08:28:44;;;;;;;5.28;3.55;;;10.90;58.00;;;;;;5051937;28;20479;-82
2021/04/27 08:31:09;;;;;;;5.78;3.22;;;11.00;57.60;;;;;;5059367;28;20365;-82
2021/04/27 08:33:36;;;;;;;6.28;2.78;;;11.00;56.00;;;;;;4999598;28;21779;-82
2021/04/27 08:36:04;;;;;;;5.72;3.47;;;11.00;56.90;;;;;;5004480;28;20032;-82
2021/04/27 08:38:31;;;;;;;5.07;3.00;;;11.10;56.30;;;;;;5035860;28;20020;-82
2021/04/27 08:40:57;;;;;;;5.13;3.00;;;11.20;57.80;;;;;;5052813;28;20024;-81
2021/04/27 08:43:22;;;;;;;5.20;3.17;;;11.30;59.20;;;;;;5070257;28;20021;-82
2021/04/27 08:45:48;;;;;;;6.47;3.58;;;11.40;59.70;;;;;;5050870;28;20095;-81
2021/04/27 08:48:14;;;;;;;10.05;3.90;;;11.50;59.60;;;;;;5068228;28;20021;-81
2021/04/27 08:50:42;;;;;;;6.13;3.22;;;11.60;58.20;;;;;;5068505;28;20016;-82
2021/04/27 08:53:09;;;;;;;4.95;2.90;;;11.70;57.70;;;;;;5066833;28;20029;-81
2021/04/27 08:55:35;;;;;;;4.32;2.60;;;11.70;56.70;;;;;;5068756;28;20025;-82
2021/04/27 08:58:05;;;;;;;4.22;3.00;;;11.80;57.40;;;;;;5052609;28;20045;-82
2021/04/27 09:00:31;;;;;;;3.75;2.50;;;11.90;57.80;;;;;;5048267;28;20070;-81
2021/04/27 09:03:00;;;;;;;5.97;3.03;;;12.00;56.90;;;;;;5044202;28;20423;-81
2021/04/27 09:05:29;;;;;;;4.32;3.28;;;12.10;56.30;;;;;;5033729;28;20025;-83
2021/04/27 09:07:56;;;;;;;5.00;3.25;;;12.20;56.00;;;;;;5025650;28;20025;-82
2021/04/27 09:10:46;;;;;;;5.65;3.13;;;12.40;55.20;;;;;;5047154;28;20082;-82
2021/04/27 09:13:18;;;;;;;7.18;3.63;;;12.60;54.70;;;;;;5033505;28;20039;-83
2021/04/27 09:15:48;;;;;;;6.28;3.22;;;12.70;55.70;;;;;;5023670;28;20152;-82
2021/04/27 09:18:34;;;;;;;7.72;2.97;;;12.80;55.00;;;;;;5033894;28;20505;-82
2021/04/27 09:21:03;;;;;;;6.18;3.40;;;13.10;54.60;;;;;;5037502;28;20228;-81
2021/04/27 09:23:30;;;;;;;6.25;3.33;;;13.10;54.00;;;;;;5033813;28;20392;-83
2021/04/27 09:26:26;;;;;;;5.55;3.55;;;13.20;53.90;;;;;;5061928;28;20103;-82
2021/04/27 09:28:53;;;;;;;7.13;3.72;;;13.30;52.90;;;;;;5048936;28;20036;-81
2021/04/27 09:31:23;;;;;;;6.65;2.88;;;13.30;52.80;;;;;;5048889;28;20100;-82
2021/04/27 09:33:50;;;;;;;9.20;3.53;;;13.40;52.20;;;;;;5061108;28;20025;-81
2021/04/27 09:36:23;;;;;;;6.63;3.28;;;13.50;53.10;;;;;;5051209;28;20047;-82
2021/04/27 09:38:53;;;;;;;5.82;3.42;;;13.70;54.50;;;;;;5042332;28;20025;-83
2021/04/27 09:41:25;;;;;;;7.07;3.42;;;13.90;51.80;;;;;;5070857;28;20020;-82
2021/04/27 09:43:52;;;;;;;4.30;2.95;;;14.10;50.30;;;;;;5055455;28;20192;-83
2021/04/27 09:46:20;;;;;;;4.28;2.97;;;14.40;50.30;;;;;;5055047;28;20024;-81
2021/04/27 09:48:51;;;;;;;6.32;3.30;;;15.00;49.40;;;;;;5056413;28;20090;-82
2021/04/27 09:51:21;;;;;;;8.25;3.40;;;17.50;45.40;;;;;;5055322;28;20020;-83
2021/04/27 09:53:56;;;;;;;4.15;2.55;;;20.00;38.70;;;;;;5049926;28;20028;-83
2021/04/27 09:56:49;;;;;;;5.05;3.22;;;22.10;37.00;;;;;;5044358;28;20101;-83
2021/04/27 09:59:22;;;;;;;5.45;2.60;;;23.80;33.30;;;;;;5071914;28;20244;-82
2021/04/27 10:01:54;;;;;;;5.38;2.90;;;24.90;32.10;;;;;;5066604;28;20017;-83
2021/04/27 10:04:20;;;;;;;4.50;3.10;;;26.00;30.30;;;;;;5073820;28;20099;-81
2021/04/27 10:06:47;;;;;;;4.25;2.65;;;26.70;29.70;;;;;;5073441;28;20033;-83
2021/04/27 10:09:13;;;;;;;3.60;2.30;;;27.20;28.80;;;;;;5066265;28;20698;-81
2021/04/27 10:11:39;;;;;;;4.35;2.45;;;27.50;29.50;;;;;;5066168;28;20109;-81
2021/04/27 10:14:07;;;;;;;4.40;3.13;;;27.70;28.40;;;;;;5052418;28;20028;-83
2021/04/27 10:16:33;;;;;;;4.40;2.75;;;28.20;28.30;;;;;;5053451;28;20016;-83
2021/04/27 10:18:59;;;;;;;1.95;1.55;;;28.80;28.20;;;;;;5053906;28;20016;-83
2021/04/27 10:21:25;;;;;;;4.18;2.25;;;29.20;27.80;;;;;;5087231;28;20381;-81
2021/04/27 10:24:00;;;;;;;3.92;2.63;;;30.00;27.50;;;;;;5092306;28;20562;-82
2021/04/27 10:26:27;;;;;;;4.15;2.28;;;30.50;25.90;;;;;;5090383;28;20031;-84
2021/04/27 10:29:14;;;;;;;4.90;2.60;;;30.30;26.00;;;;;;5088320;28;20034;-83
2021/04/27 10:31:41;;;;;;;2.97;2.55;;;30.10;24.90;;;;;;5085698;28;20024;-83
2021/04/27 10:34:18;;;;;;;4.55;2.25;;;29.90;25.10;;;;;;5092218;28;20029;-82
2021/04/27 10:37:06;;;;;;;4.35;2.40;;;30.00;25.30;;;;;;5086265;28;20097;-83
2021/04/27 10:39:47;;;;;;;3.95;2.17;;;30.00;24.50;;;;;;5088233;28;20559;-83
2021/04/27 10:42:31;;;;;;;4.75;2.60;;;29.80;24.70;;;;;;5055129;28;20036;-84
2021/04/27 10:45:02;;;;;;;2.50;2.08;;;31.00;24.70;;;;;;5077465;28;20602;-84
2021/04/27 10:47:30;;;;;;;2.90;1.73;;;31.40;24.60;;;;;;5074138;28;20039;-83
2021/04/27 10:49:57;;;;;;;4.47;1.87;;;32.20;24.50;;;;;;5089397;28;20028;-82
2021/04/27 10:52:34;;;;;;;4.85;2.70;;;33.00;24.10;;;;;;5082711;28;20259;-85
2021/04/27 10:55:24;;;;;;;5.75;2.65;;;33.00;23.40;;;;;;5073900;28;20078;-83
2021/04/27 10:57:49;;;;;;;3.05;2.38;;;33.20;22.90;;;;;;5072826;28;20075;-83
2021/04/27 11:00:40;;;;;;;2.55;1.85;;;33.30;23.70;;;;;;5059943;28;20017;-84
2021/04/27 11:03:23;;;;;;;3.42;1.92;;;33.10;23.80;;;;;;5072501;28;20025;-85
2021/04/27 11:06:00;;;;;;;3.40;1.40;;;33.10;23.70;;;;;;5062150;28;20021;-83
2021/04/27 11:08:47;;;;;;;3.00;2.10;;;33.50;23.90;;;;;;5067301;28;20028;-84
2021/04/27 11:11:33;;;;;;;3.85;1.95;;;34.20;23.10;;;;;;5085525;28;20386;-84
2021/04/27 11:14:20;;;;;;;3.53;2.13;;;33.90;22.80;;;;;;5070065;28;20060;-82
2021/04/27 11:16:53;;;;;;;3.47;2.00;;;33.50;23.20;;;;;;5071797;28;20032;-84
2021/04/27 11:19:19;;;;;;;2.40;1.77;;;33.00;23.10;;;;;;5076262;28;20020;-83
2021/04/27 11:21:50;;;;;;;3.90;1.67;;;32.00;23.50;;;;;;5070643;28;20024;-81
2021/04/27 11:24:31;;;;;;;3.20;2.20;;;30.60;23.90;;;;;;5027437;28;20025;-82
2021/04/27 11:26:57;;;;;;;4.32;3.00;;;29.30;23.40;;;;;;5051460;28;20027;-86
2021/04/27 11:29:28;;;;;;;3.22;2.58;;;28.00;24.20;;;;;;5053086;28;20399;-84
2021/04/27 11:32:11;;;;;;;3.17;2.05;;;27.30;25.00;;;;;;5069876;28;20099;-82
2021/04/27 11:35:14;;;;;;;2.63;2.42;;;26.70;26.00;;;;;;5055403;28;20033;-83
2021/04/27 11:37:40;;;;;;;3.60;2.03;;;26.70;25.70;;;;;;5035315;28;20098;-83
2021/04/27 11:40:37;;;;;;;5.40;2.50;;;26.60;26.10;;;;;;5035516;28;20371;-83
2021/04/27 11:43:06;;;;;;;2.83;2.03;;;28.20;25.40;;;;;;5035299;28;20104;-83
2021/04/27 11:45:34;;;;;;;2.55;2.00;;;30.10;24.90;;;;;;5035376;28;20025;-83
2021/04/27 11:48:00;;;;;;;3.40;2.20;;;31.60;24.50;;;;;;5034925;28;20552;-83
2021/04/27 11:50:28;;;;;;;2.63;1.80;;;32.90;23.80;;;;;;5035402;28;20067;-82
2021/04/27 11:53:04;;;;;;;3.97;2.55;;;33.10;23.30;;;;;;5035495;28;20029;-82
2021/04/27 11:55:33;;;;;;;3.17;2.30;;;33.40;22.70;;;;;;5035231;28;20048;-85
2021/04/27 11:58:12;;;;;;;;;;;33.20;22.70;;;;;;5023744;28;20018;-83
2021/04/27 12:00:53;;;;;;;3.97;2.08;;;33.10;23.00;;;;;;5034886;28;19991;-82
2021/04/27 12:03:21;;;;;;;3.95;2.35;;;33.50;22.90;;;;;;5034962;28;20028;-83
2021/04/27 12:05:57;;;;;;;4.28;3.15;;;33.80;21.90;;;;;;5035222;28;20392;-83
2021/04/27 12:08:30;;;;;;;4.55;2.17;;;33.80;21.90;;;;;;5034783;28;20066;-83
2021/04/27 12:11:23;;;;;;;5.95;2.53;;;33.80;22.70;;;;;;5035074;28;20040;-83
2021/04/27 12:13:57;;;;;;;4.32;2.30;;;33.90;22.30;;;;;;5046461;28;20031;-83
2021/04/27 12:16:34;;;;;;;3.20;1.83;;;33.60;22.60;;;;;;5052003;28;20025;-83
2021/04/27 12:19:02;;;;;;;3.42;2.38;;;33.20;23.00;;;;;;5034488;28;20021;-83
2021/04/27 12:21:39;;;;;;;2.58;1.95;;;32.90;22.70;;;;;;5067018;28;20044;-83
2021/04/27 12:24:24;;;;;;;2.35;1.95;;;33.10;23.10;;;;;;5080453;28;20035;-82
2021/04/27 12:26:56;;;;;;;2.97;2.28;;;33.00;23.10;;;;;;5062826;28;20060;-83
2021/04/27 12:29:40;;;;;;;2.45;1.23;;;32.30;23.30;;;;;;5067802;28;20028;-83
2021/04/27 12:32:14;;;;;;;3.30;2.25;;;32.10;23.50;;;;;;5088671;28;20020;-83
2021/04/27 12:35:00;;;;;;;3.53;2.50;;;32.00;23.10;;;;;;5086697;28;20027;-84
2021/04/27 12:37:31;;;;;;;2.50;1.80;;;32.40;22.40;;;;;;5087698;28;20121;-84
2021/04/27 12:39:58;;;;;;;2.38;2.08;;;33.00;23.30;;;;;;5082533;28;20422;-83
2021/04/27 12:42:31;;;;;;;2.58;2.28;;;33.10;22.90;;;;;;5071183;28;20017;-83
2021/04/27 12:45:06;;;;;;;3.28;1.70;;;32.70;22.50;;;;;;5078552;28;20122;-83
2021/04/27 12:47:34;;;;;;;3.15;1.80;;;32.70;22.90;;;;;;5024332;28;20504;-83
2021/04/27 12:50:13;;;;;;;5.68;2.35;;;32.60;23.30;;;;;;5029441;28;20041;-84
2021/04/27 12:52:51;;;;;;;2.42;2.05;;;32.30;22.80;;;;;;5062750;28;20042;-83
2021/04/27 12:55:23;;;;;;;6.30;2.97;;;32.20;23.10;;;;;;5073454;28;20024;-83
2021/04/27 12:57:49;;;;;;;4.25;2.83;;;32.30;23.10;;;;;;5066840;28;20499;-82
2021/04/27 13:00:18;;;;;;;4.18;2.50;;;32.10;22.60;;;;;;5079698;28;20107;-82